Pagina principală
METAR-TAF:

METAR-TAF

Aeroporturi :

Dallas-Addison, Texas, Statele Unite ale Americii

Latitudine: 32-58N, longitudine: 096-50W, elevație: 196 m

Observații meteo curente

Raportul a fost făcut în urmă cu 10 de minute, la 04:55 UTC
Vânt 6 kt de la Est/Sud-est
Temperatură 26°C
Umiditate 65%
Presiune 1014 hPa
Vizibilitate: 16.1 km
Cer senin

METAR: KADS 190455Z AUTO 11006KT 10SM CLR 26/19 A2994 RMK AO2 T02610190

Ora: 00:05 (05:05 UTC)


TAF: lipsă

Observații și prognoze meteo pentru peste 4.000 de aeroporturi (rapoarte METAR și TAF).

Stațiile disponibile sunt reprezentate pe hartă prin puncte galbene și roșii.

Țineți indicatorul mouse-ului pe punctul dorit pentru a vedea denumirea stației.

Apoi, faceți clic pentru a vedea observațiile și prognozele meteorologice.

Pentru a schimba harta: Pentru mărire, faceți clic pe butoanele verzi cu cruce neagră; pentru micșorare, pe butonul verde cu o liniuță; pentru hărți învecinate, pe săgețile verzi.


METAR-TAF: